Terminal Aerodrome Forecast
Issued by NWS Twin Cities, MN

Home | Current Version | Previous Version | Text Only | Print | Product List | Glossary Off
Versions: 1 2 3 4 5 6 7 8 9 10 11 12 13 14 15 16

000
FTUS43 KMPX 311504 AAA
TAFSTC
TAF AMD
KSTC 311504Z 3115/0112 19009KT P6SM SCT009 BKN015
     FM311700 21010KT P6SM SCT020 BKN150
     FM010200 22008KT P6SM SKC=

USA.gov is the U.S. government's official web portal to all federal, state and local government web resources and services.